sensor_id;sensor_type;location;lat;lon;timestamp;P1;durP1;ratioP1;P2;durP2;ratioP2
43580;SDS011;29175;51.030;4.606;2022-12-18T00:01:26;120.05;;;41.22;;
43580;SDS011;29175;51.030;4.606;2022-12-18T00:03:55;125.45;;;41.28;;
43580;SDS011;29175;51.030;4.606;2022-12-18T00:06:21;132.18;;;42.70;;
43580;SDS011;29175;51.030;4.606;2022-12-18T00:08:50;141.18;;;45.53;;
43580;SDS011;29175;51.030;4.606;2022-12-18T00:11:18;138.75;;;43.38;;
43580;SDS011;29175;51.030;4.606;2022-12-18T00:13:46;138.52;;;43.85;;
43580;SDS011;29175;51.030;4.606;2022-12-18T00:16:13;131.60;;;41.80;;
43580;SDS011;29175;51.030;4.606;2022-12-18T00:18:41;129.85;;;42.03;;
43580;SDS011;29175;51.030;4.606;2022-12-18T00:21:08;143.80;;;44.00;;
43580;SDS011;29175;51.030;4.606;2022-12-18T00:23:37;150.88;;;45.55;;
43580;SDS011;29175;51.030;4.606;2022-12-18T00:26:05;139.02;;;43.40;;
43580;SDS011;29175;51.030;4.606;2022-12-18T00:28:33;147.85;;;43.45;;
43580;SDS011;29175;51.030;4.606;2022-12-18T00:31:06;138.88;;;43.17;;
43580;SDS011;29175;51.030;4.606;2022-12-18T00:33:33;133.75;;;42.00;;
43580;SDS011;29175;51.030;4.606;2022-12-18T00:36:00;138.20;;;43.00;;
43580;SDS011;29175;51.030;4.606;2022-12-18T00:38:33;125.53;;;40.50;;
43580;SDS011;29175;51.030;4.606;2022-12-18T00:40:59;125.72;;;39.80;;
43580;SDS011;29175;51.030;4.606;2022-12-18T00:43:25;135.20;;;44.75;;
43580;SDS011;29175;51.030;4.606;2022-12-18T00:45:52;137.50;;;44.70;;
43580;SDS011;29175;51.030;4.606;2022-12-18T00:48:18;129.02;;;39.72;;
43580;SDS011;29175;51.030;4.606;2022-12-18T00:50:44;124.50;;;40.22;;
43580;SDS011;29175;51.030;4.606;2022-12-18T00:53:10;114.22;;;40.33;;
43580;SDS011;29175;51.030;4.606;2022-12-18T00:55:39;129.02;;;41.40;;
43580;SDS011;29175;51.030;4.606;2022-12-18T00:58:07;131.95;;;41.60;;
43580;SDS011;29175;51.030;4.606;2022-12-18T01:00:33;133.52;;;42.65;;
43580;SDS011;29175;51.030;4.606;2022-12-18T01:03:00;133.65;;;41.13;;
43580;SDS011;29175;51.030;4.606;2022-12-18T01:05:26;132.07;;;40.30;;
43580;SDS011;29175;51.030;4.606;2022-12-18T01:07:52;146.15;;;44.00;;
43580;SDS011;29175;51.030;4.606;2022-12-18T01:10:17;134.48;;;41.03;;
43580;SDS011;29175;51.030;4.606;2022-12-18T01:12:43;124.07;;;41.17;;
43580;SDS011;29175;51.030;4.606;2022-12-18T01:15:09;127.78;;;41.28;;
43580;SDS011;29175;51.030;4.606;2022-12-18T01:17:37;134.02;;;43.13;;
43580;SDS011;29175;51.030;4.606;2022-12-18T01:20:03;134.50;;;42.40;;
43580;SDS011;29175;51.030;4.606;2022-12-18T01:22:29;137.70;;;42.83;;
43580;SDS011;29175;51.030;4.606;2022-12-18T01:24:56;121.88;;;40.65;;
43580;SDS011;29175;51.030;4.606;2022-12-18T01:27:21;127.00;;;40.88;;
43580;SDS011;29175;51.030;4.606;2022-12-18T01:29:47;133.50;;;40.83;;
43580;SDS011;29175;51.030;4.606;2022-12-18T01:32:14;127.40;;;39.92;;
43580;SDS011;29175;51.030;4.606;2022-12-18T01:34:40;125.35;;;39.17;;
43580;SDS011;29175;51.030;4.606;2022-12-18T01:37:05;139.50;;;42.00;;
43580;SDS011;29175;51.030;4.606;2022-12-18T01:39:31;136.13;;;41.83;;
43580;SDS011;29175;51.030;4.606;2022-12-18T01:41:58;122.80;;;40.17;;
43580;SDS011;29175;51.030;4.606;2022-12-18T01:47:28;125.05;;;39.42;;
43580;SDS011;29175;51.030;4.606;2022-12-18T01:50:04;127.97;;;39.15;;
43580;SDS011;29175;51.030;4.606;2022-12-18T01:52:33;134.15;;;42.50;;
43580;SDS011;29175;51.030;4.606;2022-12-18T01:55:00;115.30;;;39.70;;
43580;SDS011;29175;51.030;4.606;2022-12-18T01:57:30;129.43;;;39.25;;
43580;SDS011;29175;51.030;4.606;2022-12-18T01:59:59;121.78;;;37.83;;
43580;SDS011;29175;51.030;4.606;2022-12-18T02:02:28;121.40;;;38.25;;
43580;SDS011;29175;51.030;4.606;2022-12-18T02:04:55;128.27;;;39.08;;
43580;SDS011;29175;51.030;4.606;2022-12-18T02:09:59;122.85;;;38.55;;
43580;SDS011;29175;51.030;4.606;2022-12-18T02:16:05;116.88;;;38.30;;
43580;SDS011;29175;51.030;4.606;2022-12-18T02:18:43;132.80;;;40.75;;
43580;SDS011;29175;51.030;4.606;2022-12-18T02:26:36;112.32;;;34.30;;
43580;SDS011;29175;51.030;4.606;2022-12-18T02:29:08;127.20;;;38.30;;
43580;SDS011;29175;51.030;4.606;2022-12-18T02:32:08;108.45;;;34.00;;
43580;SDS011;29175;51.030;4.606;2022-12-18T02:34:39;113.13;;;34.63;;
43580;SDS011;29175;51.030;4.606;2022-12-18T02:37:07;107.93;;;36.55;;
43580;SDS011;29175;51.030;4.606;2022-12-18T02:39:38;111.47;;;37.58;;
43580;SDS011;29175;51.030;4.606;2022-12-18T02:42:06;106.18;;;36.47;;
43580;SDS011;29175;51.030;4.606;2022-12-18T02:44:43;110.28;;;35.13;;
43580;SDS011;29175;51.030;4.606;2022-12-18T02:47:10;118.95;;;35.55;;
43580;SDS011;29175;51.030;4.606;2022-12-18T02:55:08;113.90;;;37.78;;
43580;SDS011;29175;51.030;4.606;2022-12-18T03:00:32;100.90;;;33.15;;
43580;SDS011;29175;51.030;4.606;2022-12-18T03:05:48;86.75;;;27.08;;
43580;SDS011;29175;51.030;4.606;2022-12-18T03:08:28;116.03;;;36.75;;
43580;SDS011;29175;51.030;4.606;2022-12-18T03:13:33;115.05;;;36.95;;
43580;SDS011;29175;51.030;4.606;2022-12-18T03:16:02;109.75;;;35.05;;
43580;SDS011;29175;51.030;4.606;2022-12-18T03:18:30;108.93;;;33.05;;
43580;SDS011;29175;51.030;4.606;2022-12-18T03:21:04;99.93;;;34.13;;
43580;SDS011;29175;51.030;4.606;2022-12-18T03:23:33;105.78;;;34.88;;
43580;SDS011;29175;51.030;4.606;2022-12-18T03:26:07;102.90;;;33.17;;
43580;SDS011;29175;51.030;4.606;2022-12-18T03:28:36;110.38;;;36.95;;
43580;SDS011;29175;51.030;4.606;2022-12-18T03:31:07;99.40;;;32.17;;
43580;SDS011;29175;51.030;4.606;2022-12-18T03:33:38;110.78;;;33.47;;
43580;SDS011;29175;51.030;4.606;2022-12-18T03:36:11;93.75;;;30.88;;
43580;SDS011;29175;51.030;4.606;2022-12-18T03:38:37;109.97;;;33.25;;
43580;SDS011;29175;51.030;4.606;2022-12-18T03:41:05;105.13;;;33.25;;
43580;SDS011;29175;51.030;4.606;2022-12-18T03:44:03;107.40;;;33.70;;
43580;SDS011;29175;51.030;4.606;2022-12-18T03:46:39;93.80;;;31.58;;
43580;SDS011;29175;51.030;4.606;2022-12-18T03:49:40;91.32;;;29.42;;
43580;SDS011;29175;51.030;4.606;2022-12-18T03:52:12;95.97;;;31.88;;
43580;SDS011;29175;51.030;4.606;2022-12-18T03:54:45;102.13;;;32.08;;
43580;SDS011;29175;51.030;4.606;2022-12-18T03:57:16;105.35;;;32.08;;
43580;SDS011;29175;51.030;4.606;2022-12-18T03:59:45;95.22;;;30.10;;
43580;SDS011;29175;51.030;4.606;2022-12-18T04:02:15;104.57;;;30.50;;
43580;SDS011;29175;51.030;4.606;2022-12-18T04:04:42;95.00;;;31.42;;
43580;SDS011;29175;51.030;4.606;2022-12-18T04:07:09;100.10;;;31.63;;
43580;SDS011;29175;51.030;4.606;2022-12-18T04:09:37;91.50;;;31.23;;
43580;SDS011;29175;51.030;4.606;2022-12-18T04:12:04;95.63;;;30.25;;
43580;SDS011;29175;51.030;4.606;2022-12-18T04:14:31;84.25;;;30.13;;
43580;SDS011;29175;51.030;4.606;2022-12-18T04:17:00;83.82;;;31.60;;
43580;SDS011;29175;51.030;4.606;2022-12-18T04:19:27;104.15;;;36.22;;
43580;SDS011;29175;51.030;4.606;2022-12-18T04:21:53;94.88;;;33.55;;
43580;SDS011;29175;51.030;4.606;2022-12-18T04:24:18;84.43;;;29.13;;
43580;SDS011;29175;51.030;4.606;2022-12-18T04:26:44;99.72;;;31.60;;
43580;SDS011;29175;51.030;4.606;2022-12-18T04:29:10;98.82;;;34.35;;
43580;SDS011;29175;51.030;4.606;2022-12-18T04:31:36;97.07;;;30.73;;
43580;SDS011;29175;51.030;4.606;2022-12-18T04:34:02;90.88;;;29.35;;
43580;SDS011;29175;51.030;4.606;2022-12-18T04:36:28;96.13;;;31.60;;
43580;SDS011;29175;51.030;4.606;2022-12-18T04:38:53;80.30;;;29.05;;
43580;SDS011;29175;51.030;4.606;2022-12-18T04:41:19;97.35;;;29.92;;
43580;SDS011;29175;51.030;4.606;2022-12-18T04:43:45;89.05;;;28.88;;
43580;SDS011;29175;51.030;4.606;2022-12-18T04:46:11;92.10;;;32.40;;
43580;SDS011;29175;51.030;4.606;2022-12-18T04:48:37;96.68;;;29.48;;
43580;SDS011;29175;51.030;4.606;2022-12-18T04:51:04;91.65;;;31.05;;
43580;SDS011;29175;51.030;4.606;2022-12-18T04:53:30;87.00;;;28.55;;
43580;SDS011;29175;51.030;4.606;2022-12-18T04:56:06;97.53;;;29.45;;
43580;SDS011;29175;51.030;4.606;2022-12-18T04:58:35;77.57;;;30.58;;
43580;SDS011;29175;51.030;4.606;2022-12-18T05:01:02;100.20;;;29.88;;
43580;SDS011;29175;51.030;4.606;2022-12-18T05:03:28;84.32;;;31.50;;
43580;SDS011;29175;51.030;4.606;2022-12-18T05:05:54;91.63;;;28.77;;
43580;SDS011;29175;51.030;4.606;2022-12-18T05:08:19;84.20;;;30.80;;
43580;SDS011;29175;51.030;4.606;2022-12-18T05:10:45;96.80;;;31.40;;
43580;SDS011;29175;51.030;4.606;2022-12-18T05:13:11;90.28;;;29.50;;
43580;SDS011;29175;51.030;4.606;2022-12-18T05:15:37;86.05;;;27.67;;
43580;SDS011;29175;51.030;4.606;2022-12-18T05:18:03;80.10;;;28.77;;
43580;SDS011;29175;51.030;4.606;2022-12-18T05:20:29;95.22;;;30.15;;
43580;SDS011;29175;51.030;4.606;2022-12-18T05:22:56;78.60;;;27.88;;
43580;SDS011;29175;51.030;4.606;2022-12-18T05:25:22;99.65;;;29.23;;
43580;SDS011;29175;51.030;4.606;2022-12-18T05:27:48;80.47;;;27.33;;
43580;SDS011;29175;51.030;4.606;2022-12-18T05:30:14;85.88;;;27.88;;
43580;SDS011;29175;51.030;4.606;2022-12-18T05:32:41;71.80;;;29.48;;
43580;SDS011;29175;51.030;4.606;2022-12-18T05:35:08;72.78;;;26.63;;
43580;SDS011;29175;51.030;4.606;2022-12-18T05:37:35;82.20;;;26.73;;
43580;SDS011;29175;51.030;4.606;2022-12-18T05:40:01;82.15;;;26.33;;
43580;SDS011;29175;51.030;4.606;2022-12-18T05:42:28;85.85;;;27.27;;
43580;SDS011;29175;51.030;4.606;2022-12-18T05:44:55;83.65;;;28.35;;
43580;SDS011;29175;51.030;4.606;2022-12-18T05:47:20;81.05;;;25.85;;
43580;SDS011;29175;51.030;4.606;2022-12-18T05:49:46;78.28;;;27.60;;
43580;SDS011;29175;51.030;4.606;2022-12-18T05:52:12;80.43;;;26.65;;
43580;SDS011;29175;51.030;4.606;2022-12-18T05:54:37;86.65;;;29.17;;
43580;SDS011;29175;51.030;4.606;2022-12-18T05:57:05;80.70;;;27.90;;
43580;SDS011;29175;51.030;4.606;2022-12-18T05:59:30;83.88;;;27.60;;
43580;SDS011;29175;51.030;4.606;2022-12-18T06:01:56;85.20;;;27.85;;
43580;SDS011;29175;51.030;4.606;2022-12-18T06:04:22;87.65;;;28.77;;
43580;SDS011;29175;51.030;4.606;2022-12-18T06:06:48;82.13;;;28.13;;
43580;SDS011;29175;51.030;4.606;2022-12-18T06:09:13;82.00;;;27.58;;
43580;SDS011;29175;51.030;4.606;2022-12-18T06:11:39;76.53;;;27.10;;
43580;SDS011;29175;51.030;4.606;2022-12-18T06:14:05;78.80;;;26.85;;
43580;SDS011;29175;51.030;4.606;2022-12-18T06:16:31;78.35;;;27.73;;
43580;SDS011;29175;51.030;4.606;2022-12-18T06:19:00;77.32;;;25.98;;
43580;SDS011;29175;51.030;4.606;2022-12-18T06:21:28;75.03;;;25.85;;
43580;SDS011;29175;51.030;4.606;2022-12-18T06:23:54;75.78;;;25.95;;
43580;SDS011;29175;51.030;4.606;2022-12-18T06:26:20;70.15;;;25.40;;
43580;SDS011;29175;51.030;4.606;2022-12-18T06:28:46;75.47;;;26.13;;
43580;SDS011;29175;51.030;4.606;2022-12-18T06:31:12;77.85;;;26.70;;
43580;SDS011;29175;51.030;4.606;2022-12-18T06:33:38;88.45;;;27.77;;
43580;SDS011;29175;51.030;4.606;2022-12-18T06:36:05;76.68;;;27.00;;
43580;SDS011;29175;51.030;4.606;2022-12-18T06:38:37;81.82;;;26.80;;
43580;SDS011;29175;51.030;4.606;2022-12-18T06:41:12;75.72;;;25.27;;
43580;SDS011;29175;51.030;4.606;2022-12-18T06:43:42;85.85;;;26.80;;
43580;SDS011;29175;51.030;4.606;2022-12-18T06:46:09;75.22;;;25.80;;
43580;SDS011;29175;51.030;4.606;2022-12-18T06:48:36;79.18;;;25.65;;
43580;SDS011;29175;51.030;4.606;2022-12-18T06:51:02;77.10;;;27.42;;
43580;SDS011;29175;51.030;4.606;2022-12-18T06:53:28;71.55;;;24.77;;
43580;SDS011;29175;51.030;4.606;2022-12-18T06:56:04;80.38;;;27.02;;
43580;SDS011;29175;51.030;4.606;2022-12-18T06:58:31;97.43;;;27.30;;
43580;SDS011;29175;51.030;4.606;2022-12-18T07:01:01;70.80;;;25.02;;
43580;SDS011;29175;51.030;4.606;2022-12-18T07:03:28;61.15;;;24.73;;
43580;SDS011;29175;51.030;4.606;2022-12-18T07:05:54;69.22;;;24.88;;
43580;SDS011;29175;51.030;4.606;2022-12-18T07:08:20;75.78;;;26.60;;
43580;SDS011;29175;51.030;4.606;2022-12-18T07:10:46;72.43;;;24.85;;
43580;SDS011;29175;51.030;4.606;2022-12-18T07:13:14;84.30;;;24.00;;
43580;SDS011;29175;51.030;4.606;2022-12-18T07:15:40;70.88;;;23.52;;
43580;SDS011;29175;51.030;4.606;2022-12-18T07:18:06;74.88;;;25.45;;
43580;SDS011;29175;51.030;4.606;2022-12-18T07:20:32;64.82;;;24.63;;
43580;SDS011;29175;51.030;4.606;2022-12-18T07:22:58;81.75;;;26.45;;
43580;SDS011;29175;51.030;4.606;2022-12-18T07:25:23;65.10;;;23.90;;
43580;SDS011;29175;51.030;4.606;2022-12-18T07:27:49;73.70;;;24.13;;
43580;SDS011;29175;51.030;4.606;2022-12-18T07:30:15;67.88;;;24.58;;
43580;SDS011;29175;51.030;4.606;2022-12-18T07:32:41;68.47;;;24.92;;
43580;SDS011;29175;51.030;4.606;2022-12-18T07:35:06;61.47;;;24.60;;
43580;SDS011;29175;51.030;4.606;2022-12-18T07:37:33;69.90;;;25.75;;
43580;SDS011;29175;51.030;4.606;2022-12-18T07:39:59;66.60;;;23.98;;
43580;SDS011;29175;51.030;4.606;2022-12-18T07:42:24;69.50;;;23.85;;
43580;SDS011;29175;51.030;4.606;2022-12-18T07:44:56;68.00;;;25.27;;
43580;SDS011;29175;51.030;4.606;2022-12-18T07:47:23;60.67;;;23.02;;
43580;SDS011;29175;51.030;4.606;2022-12-18T07:49:48;69.28;;;26.42;;
43580;SDS011;29175;51.030;4.606;2022-12-18T07:52:14;73.60;;;25.23;;
43580;SDS011;29175;51.030;4.606;2022-12-18T07:54:40;65.65;;;24.00;;
43580;SDS011;29175;51.030;4.606;2022-12-18T07:57:06;74.00;;;25.73;;
43580;SDS011;29175;51.030;4.606;2022-12-18T07:59:33;63.13;;;23.88;;
43580;SDS011;29175;51.030;4.606;2022-12-18T08:01:59;64.47;;;22.15;;
43580;SDS011;29175;51.030;4.606;2022-12-18T08:04:24;62.00;;;23.15;;
43580;SDS011;29175;51.030;4.606;2022-12-18T08:06:50;77.78;;;24.00;;
43580;SDS011;29175;51.030;4.606;2022-12-18T08:09:16;60.58;;;25.38;;
43580;SDS011;29175;51.030;4.606;2022-12-18T08:11:42;68.32;;;22.70;;
43580;SDS011;29175;51.030;4.606;2022-12-18T08:14:08;74.50;;;23.48;;
43580;SDS011;29175;51.030;4.606;2022-12-18T08:16:35;68.13;;;22.15;;
43580;SDS011;29175;51.030;4.606;2022-12-18T08:19:01;76.00;;;25.88;;
43580;SDS011;29175;51.030;4.606;2022-12-18T08:21:27;80.10;;;27.83;;
43580;SDS011;29175;51.030;4.606;2022-12-18T08:23:55;66.32;;;23.92;;
43580;SDS011;29175;51.030;4.606;2022-12-18T08:26:22;56.78;;;21.10;;
43580;SDS011;29175;51.030;4.606;2022-12-18T08:28:50;50.10;;;20.00;;
43580;SDS011;29175;51.030;4.606;2022-12-18T08:31:16;58.35;;;22.10;;
43580;SDS011;29175;51.030;4.606;2022-12-18T08:33:42;65.28;;;22.88;;
43580;SDS011;29175;51.030;4.606;2022-12-18T08:36:10;65.93;;;22.27;;
43580;SDS011;29175;51.030;4.606;2022-12-18T08:38:36;63.97;;;21.45;;
43580;SDS011;29175;51.030;4.606;2022-12-18T08:41:06;68.10;;;23.20;;
43580;SDS011;29175;51.030;4.606;2022-12-18T08:43:35;64.32;;;23.08;;
43580;SDS011;29175;51.030;4.606;2022-12-18T08:46:19;57.05;;;21.58;;
43580;SDS011;29175;51.030;4.606;2022-12-18T08:48:46;65.50;;;21.70;;
43580;SDS011;29175;51.030;4.606;2022-12-18T08:51:12;49.65;;;20.08;;
43580;SDS011;29175;51.030;4.606;2022-12-18T08:53:40;48.75;;;19.30;;
43580;SDS011;29175;51.030;4.606;2022-12-18T08:56:08;64.82;;;21.52;;
43580;SDS011;29175;51.030;4.606;2022-12-18T08:58:34;56.28;;;21.58;;
43580;SDS011;29175;51.030;4.606;2022-12-18T09:01:04;59.15;;;21.05;;
43580;SDS011;29175;51.030;4.606;2022-12-18T09:03:31;59.72;;;25.17;;
43580;SDS011;29175;51.030;4.606;2022-12-18T09:05:58;59.10;;;22.75;;
43580;SDS011;29175;51.030;4.606;2022-12-18T09:08:25;52.75;;;20.23;;
43580;SDS011;29175;51.030;4.606;2022-12-18T09:10:51;56.03;;;20.70;;
43580;SDS011;29175;51.030;4.606;2022-12-18T09:13:17;54.97;;;20.17;;
43580;SDS011;29175;51.030;4.606;2022-12-18T09:15:53;49.95;;;19.67;;
43580;SDS011;29175;51.030;4.606;2022-12-18T09:18:21;46.17;;;18.08;;
43580;SDS011;29175;51.030;4.606;2022-12-18T09:20:48;48.80;;;20.85;;
43580;SDS011;29175;51.030;4.606;2022-12-18T09:23:15;57.35;;;18.23;;
43580;SDS011;29175;51.030;4.606;2022-12-18T09:25:41;51.83;;;18.75;;
43580;SDS011;29175;51.030;4.606;2022-12-18T09:28:10;48.17;;;20.10;;
43580;SDS011;29175;51.030;4.606;2022-12-18T09:30:38;49.78;;;18.70;;
43580;SDS011;29175;51.030;4.606;2022-12-18T09:33:05;49.63;;;19.35;;
43580;SDS011;29175;51.030;4.606;2022-12-18T09:35:30;48.03;;;18.95;;
43580;SDS011;29175;51.030;4.606;2022-12-18T09:37:58;54.95;;;18.73;;
43580;SDS011;29175;51.030;4.606;2022-12-18T09:40:25;46.45;;;18.17;;
43580;SDS011;29175;51.030;4.606;2022-12-18T09:42:55;44.30;;;17.50;;
43580;SDS011;29175;51.030;4.606;2022-12-18T09:45:25;52.08;;;17.90;;
43580;SDS011;29175;51.030;4.606;2022-12-18T09:47:52;39.17;;;16.70;;
43580;SDS011;29175;51.030;4.606;2022-12-18T09:50:28;45.45;;;17.92;;
43580;SDS011;29175;51.030;4.606;2022-12-18T09:52:58;42.92;;;18.10;;
43580;SDS011;29175;51.030;4.606;2022-12-18T09:55:35;47.72;;;18.10;;
43580;SDS011;29175;51.030;4.606;2022-12-18T09:58:06;45.20;;;17.58;;
43580;SDS011;29175;51.030;4.606;2022-12-18T10:00:53;53.63;;;17.85;;
43580;SDS011;29175;51.030;4.606;2022-12-18T10:03:19;47.92;;;18.23;;
43580;SDS011;29175;51.030;4.606;2022-12-18T10:14:27;38.47;;;17.23;;
43580;SDS011;29175;51.030;4.606;2022-12-18T10:27:54;40.67;;;17.00;;
43580;SDS011;29175;51.030;4.606;2022-12-18T10:30:23;47.85;;;18.65;;
43580;SDS011;29175;51.030;4.606;2022-12-18T10:32:50;43.78;;;16.70;;
43580;SDS011;29175;51.030;4.606;2022-12-18T10:35:18;42.03;;;18.17;;
43580;SDS011;29175;51.030;4.606;2022-12-18T10:38:01;44.92;;;17.75;;
43580;SDS011;29175;51.030;4.606;2022-12-18T10:40:31;40.60;;;17.48;;
43580;SDS011;29175;51.030;4.606;2022-12-18T10:43:13;42.90;;;18.58;;
43580;SDS011;29175;51.030;4.606;2022-12-18T10:45:40;39.78;;;17.30;;
43580;SDS011;29175;51.030;4.606;2022-12-18T10:48:19;42.53;;;17.27;;
43580;SDS011;29175;51.030;4.606;2022-12-18T10:50:48;37.08;;;16.85;;
43580;SDS011;29175;51.030;4.606;2022-12-18T10:53:34;44.45;;;18.05;;
43580;SDS011;29175;51.030;4.606;2022-12-18T10:56:02;49.40;;;18.80;;
43580;SDS011;29175;51.030;4.606;2022-12-18T10:58:30;41.70;;;17.77;;
43580;SDS011;29175;51.030;4.606;2022-12-18T11:03:36;35.53;;;16.10;;
43580;SDS011;29175;51.030;4.606;2022-12-18T11:08:34;40.20;;;16.25;;
43580;SDS011;29175;51.030;4.606;2022-12-18T11:10:59;62.50;;;16.13;;
43580;SDS011;29175;51.030;4.606;2022-12-18T11:13:27;46.58;;;16.58;;
43580;SDS011;29175;51.030;4.606;2022-12-18T11:15:54;39.60;;;15.85;;
43580;SDS011;29175;51.030;4.606;2022-12-18T11:18:30;29.33;;;14.00;;
43580;SDS011;29175;51.030;4.606;2022-12-18T11:20:59;42.13;;;16.88;;
43580;SDS011;29175;51.030;4.606;2022-12-18T11:23:43;36.72;;;15.25;;
43580;SDS011;29175;51.030;4.606;2022-12-18T11:26:17;39.63;;;16.83;;
43580;SDS011;29175;51.030;4.606;2022-12-18T11:31:16;38.45;;;16.00;;
43580;SDS011;29175;51.030;4.606;2022-12-18T11:33:44;41.92;;;16.50;;
43580;SDS011;29175;51.030;4.606;2022-12-18T11:36:43;41.92;;;16.48;;
43580;SDS011;29175;51.030;4.606;2022-12-18T11:39:20;43.85;;;16.88;;
43580;SDS011;29175;51.030;4.606;2022-12-18T11:41:52;39.17;;;16.23;;
43580;SDS011;29175;51.030;4.606;2022-12-18T11:49:55;40.80;;;16.10;;
43580;SDS011;29175;51.030;4.606;2022-12-18T11:52:47;42.85;;;17.85;;
43580;SDS011;29175;51.030;4.606;2022-12-18T12:06:41;39.53;;;16.92;;
43580;SDS011;29175;51.030;4.606;2022-12-18T12:09:27;40.05;;;16.83;;
43580;SDS011;29175;51.030;4.606;2022-12-18T12:17:06;40.90;;;17.77;;
43580;SDS011;29175;51.030;4.606;2022-12-18T12:19:47;41.70;;;17.73;;
43580;SDS011;29175;51.030;4.606;2022-12-18T12:30:20;38.45;;;15.85;;
43580;SDS011;29175;51.030;4.606;2022-12-18T12:33:02;43.28;;;16.33;;
43580;SDS011;29175;51.030;4.606;2022-12-18T12:38:51;39.55;;;16.80;;
43580;SDS011;29175;51.030;4.606;2022-12-18T12:41:32;40.53;;;17.67;;
43580;SDS011;29175;51.030;4.606;2022-12-18T12:44:20;42.70;;;16.60;;
43580;SDS011;29175;51.030;4.606;2022-12-18T12:46:50;42.38;;;18.33;;
43580;SDS011;29175;51.030;4.606;2022-12-18T12:49:20;44.90;;;17.52;;
43580;SDS011;29175;51.030;4.606;2022-12-18T12:52:24;41.45;;;17.30;;
43580;SDS011;29175;51.030;4.606;2022-12-18T12:54:58;39.17;;;17.38;;
43580;SDS011;29175;51.030;4.606;2022-12-18T12:57:37;43.95;;;17.67;;
43580;SDS011;29175;51.030;4.606;2022-12-18T13:00:23;49.58;;;19.27;;
43580;SDS011;29175;51.030;4.606;2022-12-18T13:02:52;56.22;;;18.77;;
43580;SDS011;29175;51.030;4.606;2022-12-18T13:05:44;36.55;;;17.95;;
43580;SDS011;29175;51.030;4.606;2022-12-18T13:08:24;42.70;;;18.15;;
43580;SDS011;29175;51.030;4.606;2022-12-18T13:10:55;48.88;;;19.60;;
43580;SDS011;29175;51.030;4.606;2022-12-18T13:13:50;48.72;;;20.00;;
43580;SDS011;29175;51.030;4.606;2022-12-18T13:16:22;45.83;;;19.63;;
43580;SDS011;29175;51.030;4.606;2022-12-18T13:18:52;53.60;;;20.33;;
43580;SDS011;29175;51.030;4.606;2022-12-18T13:21:28;51.30;;;19.80;;
43580;SDS011;29175;51.030;4.606;2022-12-18T13:23:56;42.72;;;19.75;;
43580;SDS011;29175;51.030;4.606;2022-12-18T13:26:47;50.80;;;22.08;;
43580;SDS011;29175;51.030;4.606;2022-12-18T13:29:14;46.40;;;20.55;;
43580;SDS011;29175;51.030;4.606;2022-12-18T13:32:19;50.38;;;21.42;;
43580;SDS011;29175;51.030;4.606;2022-12-18T13:34:48;46.45;;;20.55;;
43580;SDS011;29175;51.030;4.606;2022-12-18T13:37:44;46.80;;;20.35;;
43580;SDS011;29175;51.030;4.606;2022-12-18T13:41:00;51.05;;;22.15;;
43580;SDS011;29175;51.030;4.606;2022-12-18T13:45:45;48.90;;;19.00;;
43580;SDS011;29175;51.030;4.606;2022-12-18T13:48:15;45.20;;;20.08;;
43580;SDS011;29175;51.030;4.606;2022-12-18T13:50:54;49.13;;;19.55;;
43580;SDS011;29175;51.030;4.606;2022-12-18T13:53:26;50.88;;;19.67;;
43580;SDS011;29175;51.030;4.606;2022-12-18T13:55:55;44.67;;;19.13;;
43580;SDS011;29175;51.030;4.606;2022-12-18T13:58:22;43.80;;;19.15;;
43580;SDS011;29175;51.030;4.606;2022-12-18T14:00:47;43.28;;;19.63;;
43580;SDS011;29175;51.030;4.606;2022-12-18T14:03:22;43.35;;;19.15;;
43580;SDS011;29175;51.030;4.606;2022-12-18T14:05:54;49.25;;;20.27;;
43580;SDS011;29175;51.030;4.606;2022-12-18T14:08:23;46.60;;;19.42;;
43580;SDS011;29175;51.030;4.606;2022-12-18T14:10:52;46.40;;;21.05;;
43580;SDS011;29175;51.030;4.606;2022-12-18T14:13:24;40.67;;;20.13;;
43580;SDS011;29175;51.030;4.606;2022-12-18T14:15:54;47.55;;;21.33;;
43580;SDS011;29175;51.030;4.606;2022-12-18T14:19:03;51.33;;;20.15;;
43580;SDS011;29175;51.030;4.606;2022-12-18T14:21:25;50.15;;;21.83;;
43580;SDS011;29175;51.030;4.606;2022-12-18T14:24:06;48.28;;;20.30;;
43580;SDS011;29175;51.030;4.606;2022-12-18T14:26:42;48.30;;;20.05;;
43580;SDS011;29175;51.030;4.606;2022-12-18T14:29:27;45.90;;;20.20;;
43580;SDS011;29175;51.030;4.606;2022-12-18T14:32:04;53.85;;;20.63;;
43580;SDS011;29175;51.030;4.606;2022-12-18T14:34:31;46.45;;;22.00;;
43580;SDS011;29175;51.030;4.606;2022-12-18T14:36:56;48.63;;;20.40;;
43580;SDS011;29175;51.030;4.606;2022-12-18T14:39:22;49.00;;;21.98;;
43580;SDS011;29175;51.030;4.606;2022-12-18T14:41:50;51.80;;;22.33;;
43580;SDS011;29175;51.030;4.606;2022-12-18T14:44:16;46.83;;;22.35;;
43580;SDS011;29175;51.030;4.606;2022-12-18T14:46:43;54.85;;;23.65;;
43580;SDS011;29175;51.030;4.606;2022-12-18T14:51:46;59.38;;;23.70;;
43580;SDS011;29175;51.030;4.606;2022-12-18T14:54:20;49.88;;;22.77;;
43580;SDS011;29175;51.030;4.606;2022-12-18T14:56:51;57.03;;;24.50;;
43580;SDS011;29175;51.030;4.606;2022-12-18T14:59:25;51.17;;;24.17;;
43580;SDS011;29175;51.030;4.606;2022-12-18T15:02:37;59.88;;;24.98;;
43580;SDS011;29175;51.030;4.606;2022-12-18T15:04:41;57.97;;;25.50;;
43580;SDS011;29175;51.030;4.606;2022-12-18T15:10:08;57.43;;;25.03;;
43580;SDS011;29175;51.030;4.606;2022-12-18T15:18:02;59.05;;;24.67;;
43580;SDS011;29175;51.030;4.606;2022-12-18T15:20:31;61.30;;;26.10;;
43580;SDS011;29175;51.030;4.606;2022-12-18T15:23:04;50.10;;;22.98;;
43580;SDS011;29175;51.030;4.606;2022-12-18T15:25:37;50.25;;;22.30;;
43580;SDS011;29175;51.030;4.606;2022-12-18T15:28:03;57.90;;;24.90;;
43580;SDS011;29175;51.030;4.606;2022-12-18T15:30:39;57.28;;;23.92;;
43580;SDS011;29175;51.030;4.606;2022-12-18T15:33:23;63.95;;;22.92;;
43580;SDS011;29175;51.030;4.606;2022-12-18T15:36:00;53.92;;;21.83;;
43580;SDS011;29175;51.030;4.606;2022-12-18T15:38:29;53.95;;;23.85;;
43580;SDS011;29175;51.030;4.606;2022-12-18T15:40:56;64.85;;;24.52;;
43580;SDS011;29175;51.030;4.606;2022-12-18T15:43:23;57.47;;;23.17;;
43580;SDS011;29175;51.030;4.606;2022-12-18T15:45:59;52.08;;;23.58;;
43580;SDS011;29175;51.030;4.606;2022-12-18T15:48:31;57.05;;;23.30;;
43580;SDS011;29175;51.030;4.606;2022-12-18T15:50:59;56.63;;;22.07;;
43580;SDS011;29175;51.030;4.606;2022-12-18T15:53:26;55.90;;;22.20;;
43580;SDS011;29175;51.030;4.606;2022-12-18T15:55:55;60.50;;;23.95;;
43580;SDS011;29175;51.030;4.606;2022-12-18T15:58:39;51.72;;;22.58;;
43580;SDS011;29175;51.030;4.606;2022-12-18T16:01:05;51.88;;;23.13;;
43580;SDS011;29175;51.030;4.606;2022-12-18T16:03:32;65.00;;;23.92;;
43580;SDS011;29175;51.030;4.606;2022-12-18T16:05:58;60.97;;;23.40;;
43580;SDS011;29175;51.030;4.606;2022-12-18T16:08:29;51.10;;;23.00;;
43580;SDS011;29175;51.030;4.606;2022-12-18T16:10:56;62.50;;;25.88;;
43580;SDS011;29175;51.030;4.606;2022-12-18T16:13:23;57.70;;;22.95;;
43580;SDS011;29175;51.030;4.606;2022-12-18T16:15:49;56.90;;;23.33;;
43580;SDS011;29175;51.030;4.606;2022-12-18T16:18:15;64.45;;;23.98;;